createdAt,value
2019-04-05T00:00:54.488Z,999.61
2019-04-05T00:01:54.468Z,999.60
2019-04-05T00:02:54.452Z,999.67
2019-04-05T00:03:54.464Z,999.68
2019-04-05T00:04:54.448Z,999.67
2019-04-05T00:05:54.429Z,999.71
2019-04-05T00:07:01.973Z,999.70
2019-04-05T00:08:01.936Z,999.70
2019-04-05T00:08:54.387Z,999.75
2019-04-05T00:09:54.416Z,999.73
2019-04-05T00:10:54.377Z,999.71
2019-04-05T00:11:54.356Z,999.74
2019-04-05T00:12:54.383Z,999.76
2019-04-05T00:13:54.333Z,999.75
2019-04-05T00:14:54.322Z,999.74
2019-04-05T00:15:54.364Z,999.72
2019-04-05T00:16:54.304Z,999.72
2019-04-05T00:17:54.332Z,999.69
2019-04-05T00:18:54.279Z,999.69
2019-04-05T00:19:54.269Z,999.75
2019-04-05T00:20:54.276Z,999.74
2019-04-05T00:21:54.251Z,999.74
2019-04-05T00:22:54.242Z,999.76
2019-04-05T00:23:54.228Z,999.74
2019-04-05T00:24:54.232Z,999.76
2019-04-05T00:25:54.204Z,999.71
2019-04-05T00:26:54.230Z,999.71
2019-04-05T00:27:54.177Z,999.71
2019-04-05T00:29:01.714Z,999.69
2019-04-05T00:30:01.732Z,999.67
2019-04-05T00:30:54.146Z,999.61
2019-04-05T00:31:54.157Z,999.62
2019-04-05T00:32:54.147Z,999.62
2019-04-05T00:33:54.114Z,999.56
2019-04-05T00:34:54.102Z,999.60
2019-04-05T00:35:54.115Z,999.61
2019-04-05T00:36:54.173Z,999.60
2019-04-05T00:37:54.084Z,999.60
2019-04-05T00:38:54.059Z,999.63
2019-04-05T00:39:54.064Z,999.62
2019-04-05T00:40:54.066Z,999.59
2019-04-05T00:41:54.025Z,999.59
2019-04-05T00:42:54.028Z,999.54
2019-04-05T00:43:54.061Z,999.47
2019-04-05T00:44:54.092Z,999.53
2019-04-05T00:45:54.032Z,999.47
2019-04-05T00:46:53.981Z,999.51
2019-04-05T00:47:53.960Z,999.44
2019-04-05T00:48:54.010Z,999.53
2019-04-05T00:49:53.942Z,999.53
2019-04-05T00:50:53.948Z,999.57
2019-04-05T00:51:53.915Z,999.53
2019-04-05T00:52:53.917Z,999.53
2019-04-05T00:53:53.898Z,999.57
2019-04-05T00:54:53.978Z,999.51
2019-04-05T00:55:53.900Z,999.52
2019-04-05T00:56:53.882Z,999.51
2019-04-05T00:57:53.852Z,999.47
2019-04-05T00:58:53.862Z,999.48
2019-04-05T00:59:53.827Z,999.46
2019-04-05T01:00:53.821Z,999.48
2019-04-05T01:01:53.833Z,999.48
2019-04-05T01:02:53.830Z,999.50
2019-04-05T01:03:53.785Z,999.49
2019-04-05T01:04:53.772Z,999.54
2019-04-05T01:05:53.798Z,999.56
2019-04-05T01:06:53.770Z,999.57
2019-04-05T01:07:53.764Z,999.66
2019-04-05T01:08:53.741Z,999.66
2019-04-05T01:09:53.719Z,999.70
2019-04-05T01:10:53.726Z,999.72
2019-04-05T01:11:53.716Z,999.75
2019-04-05T01:12:53.692Z,999.67
2019-04-05T01:13:53.681Z,999.72
2019-04-05T01:14:53.662Z,999.69
2019-04-05T01:15:53.651Z,999.67
2019-04-05T01:16:53.707Z,999.71
2019-04-05T01:17:53.638Z,999.74
2019-04-05T01:18:53.624Z,999.71
2019-04-05T01:19:53.673Z,999.70
2019-04-05T01:20:53.627Z,999.73
2019-04-05T01:21:53.614Z,999.72
2019-04-05T01:22:53.578Z,999.77
2019-04-05T01:23:53.611Z,999.79
2019-04-05T01:24:53.553Z,999.80
2019-04-05T01:25:53.543Z,999.84
2019-04-05T01:26:53.578Z,999.81
2019-04-05T01:27:53.524Z,999.86
2019-04-05T01:28:53.511Z,999.87
2019-04-05T01:29:53.500Z,999.86
2019-04-05T01:30:53.528Z,999.84
2019-04-05T01:31:53.498Z,999.86
2019-04-05T01:32:53.469Z,999.86
2019-04-05T01:33:53.464Z,999.87
2019-04-05T01:34:53.453Z,999.86
2019-04-05T01:35:53.479Z,999.86
2019-04-05T01:36:53.472Z,999.87
2019-04-05T01:37:53.413Z,999.84
2019-04-05T01:38:53.399Z,999.89
2019-04-05T01:39:53.391Z,999.88
2019-04-05T01:40:53.380Z,999.87
2019-04-05T01:41:53.388Z,999.86
2019-04-05T01:42:53.385Z,999.88
2019-04-05T01:43:53.385Z,999.82
2019-04-05T01:44:53.336Z,999.85
2019-04-05T01:45:54.260Z,999.83
2019-04-05T01:46:53.342Z,999.88
2019-04-05T01:47:53.311Z,999.86
2019-04-05T01:48:53.313Z,999.83
2019-04-05T01:49:53.284Z,999.83
2019-04-05T01:50:53.264Z,999.84
2019-04-05T01:51:53.279Z,999.87
2019-04-05T01:52:53.251Z,999.86
2019-04-05T01:53:53.247Z,999.82
2019-04-05T01:54:53.221Z,999.86
2019-04-05T01:55:53.219Z,999.81
2019-04-05T01:56:53.293Z,999.82
2019-04-05T01:57:53.195Z,999.84
2019-04-05T01:58:53.188Z,999.90
2019-04-05T01:59:53.168Z,999.93
2019-04-05T02:00:53.156Z,999.88
2019-04-05T02:01:53.175Z,999.84
2019-04-05T02:02:53.201Z,999.82
2019-04-05T02:03:53.137Z,999.78
2019-04-05T02:04:53.146Z,999.76
2019-04-05T02:05:53.105Z,999.77
2019-04-05T02:06:53.098Z,999.78
2019-04-05T02:07:53.104Z,999.78
2019-04-05T02:08:53.073Z,999.79
2019-04-05T02:09:53.094Z,999.76
2019-04-05T02:10:53.060Z,999.73
2019-04-05T02:11:53.036Z,999.71
2019-04-05T02:12:53.051Z,999.68
2019-04-05T02:13:53.017Z,999.64
2019-04-05T02:14:53.013Z,999.60
2019-04-05T02:16:05.348Z,999.61
2019-04-05T02:16:54.054Z,999.62
2019-04-05T02:17:53.019Z,999.62
2019-04-05T02:18:52.960Z,999.62
2019-04-05T02:19:52.950Z,999.59
2019-04-05T02:20:52.943Z,999.60
2019-04-05T02:21:52.940Z,999.59
2019-04-05T02:22:52.946Z,999.55
2019-04-05T02:23:52.912Z,999.61
2019-04-05T02:24:52.931Z,999.56
2019-04-05T02:25:52.887Z,999.57
2019-04-05T02:26:52.877Z,999.62
2019-04-05T02:27:52.901Z,999.61
2019-04-05T02:28:52.856Z,999.57
2019-04-05T02:29:52.845Z,999.59
2019-04-05T02:30:52.834Z,999.55
2019-04-05T02:31:52.839Z,999.61
2019-04-05T02:32:52.852Z,999.56
2019-04-05T02:33:52.801Z,999.60
2019-04-05T02:34:52.792Z,999.58
2019-04-05T02:35:52.786Z,999.58
2019-04-05T02:36:52.771Z,999.58
2019-04-05T02:37:52.785Z,999.63
2019-04-05T02:38:52.768Z,999.65
2019-04-05T02:39:52.791Z,999.63
2019-04-05T02:40:52.727Z,999.65
2019-04-05T02:41:52.719Z,999.69
2019-04-05T02:42:52.724Z,999.71
2019-04-05T02:43:52.695Z,999.69
2019-04-05T02:44:52.688Z,999.71
2019-04-05T02:45:52.685Z,999.73
2019-04-05T02:46:52.699Z,999.75
2019-04-05T02:47:52.698Z,999.73
2019-04-05T02:48:52.659Z,999.78
2019-04-05T02:49:52.635Z,999.73
2019-04-05T02:50:52.620Z,999.76
2019-04-05T02:51:52.606Z,999.72
2019-04-05T02:52:52.622Z,999.76
2019-04-05T02:53:52.593Z,999.69
2019-04-05T02:54:52.578Z,999.82
2019-04-05T02:55:52.652Z,999.84
2019-04-05T02:56:52.553Z,999.90
2019-04-05T02:57:52.560Z,999.86
2019-04-05T02:58:52.533Z,999.85
2019-04-05T02:59:52.563Z,999.82
2019-04-05T03:00:52.512Z,999.78
2019-04-05T03:01:52.508Z,999.84
2019-04-05T03:02:52.513Z,999.80
2019-04-05T03:03:52.477Z,999.80
2019-04-05T03:04:52.497Z,999.73
2019-04-05T03:05:52.504Z,999.75
2019-04-05T03:06:52.463Z,999.73
2019-04-05T03:07:52.459Z,999.76
2019-04-05T03:08:52.453Z,999.75
2019-04-05T03:09:52.417Z,999.73
2019-04-05T03:10:52.411Z,999.80
2019-04-05T03:11:52.396Z,999.76
2019-04-05T03:12:52.410Z,999.76
2019-04-05T03:13:52.388Z,999.76
2019-04-05T03:14:52.374Z,999.76
2019-04-05T03:15:52.355Z,999.77
2019-04-05T03:16:52.348Z,999.77
2019-04-05T03:17:52.354Z,999.80
2019-04-05T03:18:52.322Z,999.78
2019-04-05T03:19:52.314Z,999.80
2019-04-05T03:21:01.176Z,999.80
2019-04-05T03:21:52.287Z,999.80
2019-04-05T03:22:52.301Z,999.78
2019-04-05T03:23:52.305Z,999.81
2019-04-05T03:24:52.265Z,999.79
2019-04-05T03:25:52.247Z,999.78
2019-04-05T03:26:52.237Z,999.80
2019-04-05T03:27:52.288Z,999.80
2019-04-05T03:28:52.212Z,999.80
2019-04-05T03:29:59.756Z,999.81
2019-04-05T03:30:59.739Z,999.80
2019-04-05T03:31:52.184Z,999.82
2019-04-05T03:32:52.202Z,999.79
2019-04-05T03:33:59.735Z,999.77
2019-04-05T03:34:59.703Z,999.81
2019-04-05T03:35:52.138Z,999.80
2019-04-05T03:36:59.721Z,999.75
2019-04-05T03:37:52.140Z,999.74
2019-04-05T03:38:59.652Z,999.69
2019-04-05T03:39:52.096Z,999.69
2019-04-05T03:40:52.104Z,999.66
2019-04-05T03:41:52.082Z,999.68
2019-04-05T03:42:52.089Z,999.70
2019-04-05T03:43:52.120Z,999.66
2019-04-05T03:44:52.039Z,999.66
2019-04-05T03:45:52.030Z,999.73
2019-04-05T03:46:59.619Z,999.69
2019-04-05T03:47:52.024Z,999.66
2019-04-05T03:49:00.772Z,999.74
2019-04-05T03:49:59.539Z,999.77
2019-04-05T03:50:51.971Z,999.75
2019-04-05T03:51:51.967Z,999.76
2019-04-05T03:52:51.975Z,999.76
2019-04-05T03:53:52.014Z,999.79
2019-04-05T03:54:51.934Z,999.77
2019-04-05T03:55:51.922Z,999.81
2019-04-05T03:56:51.913Z,999.81
2019-04-05T03:57:51.913Z,999.80
2019-04-05T03:58:51.927Z,999.79
2019-04-05T03:59:51.875Z,999.84
2019-04-05T04:00:51.936Z,999.79
2019-04-05T04:01:51.851Z,999.88
2019-04-05T04:02:51.843Z,999.85
2019-04-05T04:03:51.829Z,999.91
2019-04-05T04:04:51.849Z,999.90
2019-04-05T04:05:51.822Z,999.88
2019-04-05T04:06:51.854Z,999.95
2019-04-05T04:07:51.793Z,999.96
2019-04-05T04:08:51.804Z,999.95
2019-04-05T04:09:51.822Z,999.93
2019-04-05T04:10:51.826Z,999.93
2019-04-05T04:11:51.791Z,1000.01
2019-04-05T04:12:51.868Z,999.92
2019-04-05T04:13:51.723Z,999.97
2019-04-05T04:14:51.741Z,999.93
2019-04-05T04:15:51.701Z,999.96
2019-04-05T04:16:51.696Z,1000.03
2019-04-05T04:17:51.715Z,1000.01
2019-04-05T04:18:51.671Z,1000.07
2019-04-05T04:19:51.706Z,1000.12
2019-04-05T04:20:51.650Z,1000.10
2019-04-05T04:21:51.646Z,1000.11
2019-04-05T04:22:51.629Z,1000.14
2019-04-05T04:23:51.617Z,1000.10
2019-04-05T04:24:51.650Z,1000.18
2019-04-05T04:25:51.651Z,1000.17
2019-04-05T04:26:51.586Z,1000.19
2019-04-05T04:27:51.605Z,1000.21
2019-04-05T04:28:51.697Z,1000.20
2019-04-05T04:29:51.602Z,1000.22
2019-04-05T04:30:51.619Z,1000.21
2019-04-05T04:31:51.530Z,1000.25
2019-04-05T04:32:51.565Z,1000.22
2019-04-05T04:33:51.519Z,1000.30
2019-04-05T04:34:51.544Z,1000.31
2019-04-05T04:35:51.510Z,1000.27
2019-04-05T04:36:51.480Z,1000.28
2019-04-05T04:37:51.467Z,1000.34
2019-04-05T04:38:51.456Z,1000.33
2019-04-05T04:39:51.447Z,1000.30
2019-04-05T04:40:51.453Z,1000.36
2019-04-05T04:41:51.421Z,1000.33
2019-04-05T04:42:51.425Z,1000.36
2019-04-05T04:43:51.413Z,1000.36
2019-04-05T04:44:51.388Z,1000.35
2019-04-05T04:45:51.525Z,1000.35
2019-04-05T04:46:51.646Z,1000.37
2019-04-05T04:47:51.355Z,1000.39
2019-04-05T04:48:58.971Z,1000.41
2019-04-05T04:49:51.338Z,1000.33
2019-04-05T04:50:51.347Z,1000.36
2019-04-05T04:51:51.312Z,1000.33
2019-04-05T04:52:51.307Z,1000.33
2019-04-05T04:53:51.304Z,1000.29
2019-04-05T04:54:58.885Z,1000.33
2019-04-05T04:55:58.389Z,1000.31
2019-04-05T04:56:58.852Z,1000.28
2019-04-05T04:57:51.250Z,1000.32
2019-04-05T04:58:51.243Z,1000.31
2019-04-05T04:59:51.265Z,1000.30
2019-04-05T05:00:51.234Z,1000.31
2019-04-05T05:01:51.203Z,1000.34
2019-04-05T05:02:51.191Z,1000.35
2019-04-05T05:03:51.186Z,1000.35
2019-04-05T05:04:51.219Z,1000.40
2019-04-05T05:05:51.202Z,1000.36
2019-04-05T05:06:51.200Z,1000.42
2019-04-05T05:07:51.163Z,1000.44
2019-04-05T05:08:58.730Z,1000.39
2019-04-05T05:09:51.227Z,1000.42
2019-04-05T05:10:51.125Z,1000.39
2019-04-05T05:11:51.099Z,1000.45
2019-04-05T05:12:51.080Z,1000.45
2019-04-05T05:13:51.071Z,1000.45
2019-04-05T05:14:51.064Z,1000.41
2019-04-05T05:15:51.070Z,1000.45
2019-04-05T05:16:51.051Z,1000.47
2019-04-05T05:17:58.434Z,1000.45
2019-04-05T05:18:52.018Z,1000.45
2019-04-05T05:19:51.004Z,1000.47
2019-04-05T05:20:51.000Z,1000.44
2019-04-05T05:21:51.008Z,1000.46
2019-04-05T05:22:50.987Z,1000.48
2019-04-05T05:23:59.563Z,1000.53
2019-04-05T05:24:59.571Z,1000.49
2019-04-05T05:25:59.515Z,1000.48
2019-04-05T05:26:59.815Z,1000.46
2019-04-05T05:27:59.564Z,1000.45
2019-04-05T05:28:58.509Z,1000.46
2019-04-05T05:29:50.949Z,1000.42
2019-04-05T05:31:02.176Z,1000.50
2019-04-05T05:31:58.471Z,1000.54
2019-04-05T05:32:57.951Z,1000.52
2019-04-05T05:33:50.887Z,1000.49
2019-04-05T05:35:02.255Z,1000.50
2019-04-05T05:35:58.428Z,1000.50
2019-04-05T05:36:50.892Z,1000.53
2019-04-05T05:37:58.543Z,1000.57
2019-04-05T05:38:50.803Z,1000.59
2019-04-05T05:39:58.341Z,1000.60
2019-04-05T05:40:57.864Z,1000.59
2019-04-05T05:41:50.803Z,1000.62
2019-04-05T05:42:58.413Z,1000.62
2019-04-05T05:43:58.342Z,1000.64
2019-04-05T05:44:58.305Z,1000.62
2019-04-05T05:45:58.352Z,1000.59
2019-04-05T05:46:50.719Z,1000.63
2019-04-05T05:47:52.394Z,1000.64
2019-04-05T05:48:58.297Z,1000.63
2019-04-05T05:49:59.288Z,1000.63
2019-04-05T05:50:59.257Z,1000.63
2019-04-05T05:51:59.512Z,1000.62
2019-04-05T05:52:57.768Z,1000.64
2019-04-05T05:53:59.223Z,1000.59
2019-04-05T05:54:58.435Z,1000.56
2019-04-05T05:55:58.242Z,1000.60
2019-04-05T05:57:00.581Z,1000.56
2019-04-05T05:57:58.745Z,1000.59
2019-04-05T05:58:59.601Z,1000.60
2019-04-05T05:59:58.492Z,1000.57
2019-04-05T06:00:57.680Z,1000.57
2019-04-05T06:04:12.672Z,1000.63
2019-04-05T06:05:18.742Z,1000.62
2019-04-05T06:06:17.084Z,1000.67
2019-04-05T06:07:20.134Z,1000.68
2019-04-05T06:08:18.846Z,1000.66
2019-04-05T06:09:17.573Z,1000.69
2019-04-05T06:10:17.546Z,1000.68
2019-04-05T06:11:17.557Z,1000.74
2019-04-05T06:12:18.546Z,1000.70
2019-04-05T06:13:09.974Z,1000.73
2019-04-05T06:14:17.586Z,1000.77
2019-04-05T06:15:17.524Z,1000.74
2019-04-05T06:16:09.906Z,1000.78
2019-04-05T06:17:09.896Z,1000.80
2019-04-05T06:18:12.749Z,1000.80
2019-04-05T06:19:09.878Z,1000.79
2019-04-05T06:20:09.881Z,1000.75
2019-04-05T06:21:09.849Z,1000.74
2019-04-05T06:22:09.905Z,1000.76
2019-04-05T06:23:09.851Z,1000.72
2019-04-05T06:24:09.854Z,1000.76
2019-04-05T06:25:09.808Z,1000.74
2019-04-05T06:26:09.835Z,1000.77
2019-04-05T06:27:09.786Z,1000.75
2019-04-05T06:28:09.776Z,1000.75
2019-04-05T06:29:09.798Z,1000.76
2019-04-05T06:30:09.758Z,1000.71
2019-04-05T06:31:09.785Z,1000.71
2019-04-05T06:32:09.730Z,1000.69
2019-04-05T06:33:09.720Z,1000.76
2019-04-05T06:34:09.728Z,1000.72
2019-04-05T06:35:09.703Z,1000.73
2019-04-05T06:36:09.688Z,1000.74
2019-04-05T06:37:09.674Z,1000.70
2019-04-05T06:38:09.663Z,1000.68
2019-04-05T06:39:09.673Z,1000.73
2019-04-05T06:40:09.642Z,1000.72
2019-04-05T06:41:09.668Z,1000.70
2019-04-05T06:42:09.734Z,1000.71
2019-04-05T06:43:09.691Z,1000.70
2019-04-05T06:44:09.625Z,1000.72
2019-04-05T06:45:09.635Z,1000.69
2019-04-05T06:46:09.595Z,1000.70
2019-04-05T06:47:09.563Z,1000.71
2019-04-05T06:48:19.200Z,1000.69
2019-04-05T06:49:10.558Z,1000.67
2019-04-05T06:50:09.537Z,1000.67
2019-04-05T06:51:09.589Z,1000.66
2019-04-05T06:52:09.585Z,1000.64
2019-04-05T06:53:09.501Z,1000.60
2019-04-05T06:54:09.504Z,1000.58
2019-04-05T06:55:09.484Z,1000.58
2019-04-05T06:56:09.466Z,1000.61
2019-04-05T06:57:09.501Z,1000.59
2019-04-05T06:58:10.456Z,1000.60
2019-04-05T06:59:19.428Z,1000.56
2019-04-05T07:00:09.455Z,1000.58
2019-04-05T07:01:16.996Z,1000.57
2019-04-05T07:02:18.523Z,1000.56
2019-04-05T07:03:09.403Z,1000.57
2019-04-05T07:04:09.470Z,1000.59
2019-04-05T07:05:09.376Z,1000.62
2019-04-05T07:06:09.356Z,1000.58
2019-04-05T07:07:09.349Z,1000.61
2019-04-05T07:08:09.342Z,1000.61
2019-04-05T07:09:09.321Z,1000.63
2019-04-05T07:10:09.360Z,1000.61
2019-04-05T07:11:09.311Z,1000.62
2019-04-05T07:12:09.317Z,1000.60
2019-04-05T07:13:09.423Z,1000.63
2019-04-05T07:14:09.272Z,1000.65
2019-04-05T07:15:09.322Z,1000.61
2019-04-05T07:16:11.108Z,1000.64
2019-04-05T07:17:09.240Z,1000.66
2019-04-05T07:18:09.231Z,1000.66
2019-04-05T07:19:09.371Z,1000.68
2019-04-05T07:20:09.254Z,1000.67
2019-04-05T07:21:09.208Z,1000.68
2019-04-05T07:22:09.185Z,1000.71
2019-04-05T07:23:09.174Z,1000.68
2019-04-05T07:24:09.162Z,1000.67
2019-04-05T07:25:09.173Z,1000.70
2019-04-05T07:26:09.141Z,1000.67
2019-04-05T07:27:09.127Z,1000.69
2019-04-05T07:28:09.119Z,1000.65
2019-04-05T07:29:09.111Z,1000.64
2019-04-05T07:30:09.093Z,1000.67
2019-04-05T07:31:09.118Z,1000.67
2019-04-05T07:32:09.074Z,1000.65
2019-04-05T07:33:09.067Z,1000.59
2019-04-05T07:34:09.052Z,1000.62
2019-04-05T07:35:09.088Z,1000.64
2019-04-05T07:36:09.049Z,1000.69
2019-04-05T07:37:09.035Z,1000.67
2019-04-05T07:38:09.865Z,1000.68
2019-04-05T07:39:08.994Z,1000.68
2019-04-05T07:40:08.995Z,1000.68
2019-04-05T07:41:08.995Z,1000.72
2019-04-05T07:42:08.966Z,1000.70
2019-04-05T07:43:08.974Z,1000.69
2019-04-05T07:44:08.953Z,1000.75
2019-04-05T07:45:08.934Z,1000.75
2019-04-05T07:46:08.944Z,1000.71
2019-04-05T07:47:08.971Z,1000.68
2019-04-05T07:48:08.914Z,1000.71
2019-04-05T07:49:08.887Z,1000.72
2019-04-05T07:50:08.906Z,1000.75
2019-04-05T07:51:08.888Z,1000.78
2019-04-05T07:52:08.853Z,1000.73
2019-04-05T07:53:08.905Z,1000.79
2019-04-05T07:54:08.834Z,1000.79
2019-04-05T07:55:16.395Z,1000.79
2019-04-05T07:56:08.827Z,1000.79
2019-04-05T07:57:08.854Z,1000.75
2019-04-05T07:58:08.800Z,1000.80
2019-04-05T07:59:08.779Z,1000.79
2019-04-05T08:00:08.770Z,1000.79
2019-04-05T08:01:08.756Z,1000.85
2019-04-05T08:02:08.772Z,1000.80
2019-04-05T08:03:08.737Z,1000.83
2019-04-05T08:04:08.741Z,1000.80
2019-04-05T08:05:08.749Z,1000.84
2019-04-05T08:06:08.739Z,1000.85
2019-04-05T08:07:08.691Z,1000.85
2019-04-05T08:08:08.738Z,1000.88
2019-04-05T08:09:08.673Z,1000.86
2019-04-05T08:10:08.674Z,1000.85
2019-04-05T08:11:08.715Z,1000.86
2019-04-05T08:12:08.674Z,1000.85
2019-04-05T08:13:08.631Z,1000.93
2019-04-05T08:14:08.626Z,1000.89
2019-04-05T08:15:08.634Z,1000.90
2019-04-05T08:16:08.595Z,1000.89
2019-04-05T08:17:08.622Z,1000.85
2019-04-05T08:18:08.569Z,1000.85
2019-04-05T08:19:08.617Z,1000.87
2019-04-05T08:20:08.551Z,1000.91
2019-04-05T08:21:08.570Z,1000.85
2019-04-05T08:22:08.534Z,1000.88
2019-04-05T08:23:08.544Z,1000.88
2019-04-05T08:24:08.507Z,1000.89
2019-04-05T08:25:08.495Z,1000.85
2019-04-05T08:26:08.520Z,1000.91
2019-04-05T08:27:08.497Z,1000.83
2019-04-05T08:28:08.477Z,1000.84
2019-04-05T08:29:08.453Z,1000.83
2019-04-05T08:30:08.439Z,1000.85
2019-04-05T08:31:10.852Z,1000.87
2019-04-05T08:32:14.344Z,1000.91
2019-04-05T08:33:09.432Z,1000.86
2019-04-05T08:34:08.494Z,1000.91
2019-04-05T08:35:08.389Z,1000.92
2019-04-05T08:36:08.457Z,1000.92
2019-04-05T08:37:08.486Z,1000.93
2019-04-05T08:38:08.361Z,1000.90
2019-04-05T08:39:08.342Z,1000.88
2019-04-05T08:40:08.331Z,1000.90
2019-04-05T08:41:08.317Z,1000.89
2019-04-05T08:42:10.697Z,1000.88
2019-04-05T08:43:08.316Z,1000.91
2019-04-05T08:44:08.297Z,1000.88
2019-04-05T08:45:08.286Z,1000.93
2019-04-05T08:46:08.265Z,1000.94
2019-04-05T08:47:08.289Z,1000.88
2019-04-05T08:48:08.247Z,1000.89
2019-04-05T08:49:10.928Z,1000.89
2019-04-05T08:50:08.232Z,1000.84
2019-04-05T08:51:08.216Z,1000.87
2019-04-05T08:52:08.223Z,1000.88
2019-04-05T08:53:08.193Z,1000.88
2019-04-05T08:54:08.177Z,1000.84
2019-04-05T08:55:08.184Z,1000.90
2019-04-05T08:56:08.163Z,1000.95
2019-04-05T08:57:08.178Z,1000.91
2019-04-05T08:58:08.135Z,1000.90
2019-04-05T08:59:08.128Z,1000.88
2019-04-05T09:00:08.113Z,1000.90
2019-04-05T09:01:08.115Z,1000.88
2019-04-05T09:02:08.098Z,1000.86
2019-04-05T09:03:08.199Z,1000.86
2019-04-05T09:04:08.071Z,1000.84
2019-04-05T09:05:08.065Z,1000.84
2019-04-05T09:06:08.120Z,1000.88
2019-04-05T09:07:08.049Z,1000.84
2019-04-05T09:08:08.073Z,1000.80
2019-04-05T09:09:08.019Z,1000.78
2019-04-05T09:10:08.010Z,1000.85
2019-04-05T09:11:08.048Z,1000.78
2019-04-05T09:12:08.130Z,1000.78
2019-04-05T09:13:07.992Z,1000.80
2019-04-05T09:14:08.038Z,1000.82
2019-04-05T09:15:07.992Z,1000.84
2019-04-05T09:16:07.939Z,1000.82
2019-04-05T09:17:07.928Z,1000.79
2019-04-05T09:18:07.937Z,1000.81
2019-04-05T09:19:08.014Z,1000.86
2019-04-05T09:20:07.905Z,1000.86
2019-04-05T09:21:10.118Z,1000.88
2019-04-05T09:22:07.876Z,1000.84
2019-04-05T09:23:07.954Z,1000.91
2019-04-05T09:24:07.863Z,1000.94
2019-04-05T09:25:07.840Z,1000.92
2019-04-05T09:26:07.845Z,1000.90
2019-04-05T09:27:07.821Z,1000.88
2019-04-05T09:28:07.852Z,1000.87
2019-04-05T09:29:09.296Z,1000.88
2019-04-05T09:30:07.789Z,1000.86
2019-04-05T09:31:07.795Z,1000.86
2019-04-05T09:32:07.811Z,1000.84
2019-04-05T09:33:07.775Z,1000.83
2019-04-05T09:34:07.748Z,1000.87
2019-04-05T09:35:07.745Z,1000.79
2019-04-05T09:36:07.762Z,1000.78
2019-04-05T09:37:07.733Z,1000.78
2019-04-05T09:38:07.706Z,1000.79
2019-04-05T09:39:07.722Z,1000.72
2019-04-05T09:40:07.676Z,1000.73
2019-04-05T09:41:07.670Z,1000.72
2019-04-05T09:42:07.683Z,1000.71
2019-04-05T09:43:07.689Z,1000.68
2019-04-05T09:44:07.639Z,1000.67
2019-04-05T09:45:07.621Z,1000.66
2019-04-05T09:46:07.641Z,1000.68
2019-04-05T09:47:07.632Z,1000.66
2019-04-05T09:48:07.638Z,1000.67
2019-04-05T09:49:07.581Z,1000.67
2019-04-05T09:50:07.567Z,1000.61
2019-04-05T09:51:07.572Z,1000.62
2019-04-05T09:52:07.549Z,1000.64
2019-04-05T09:53:07.582Z,1000.64
2019-04-05T09:54:07.533Z,1000.66
2019-04-05T09:55:07.521Z,1000.78
2019-04-05T09:56:07.539Z,1000.76
2019-04-05T09:57:07.497Z,1000.78
2019-04-05T09:58:09.911Z,1000.78
2019-04-05T09:59:07.470Z,1000.78
2019-04-05T10:00:07.462Z,1000.80
2019-04-05T10:01:07.453Z,1000.77
2019-04-05T10:02:07.459Z,1000.76
2019-04-05T10:03:07.541Z,1000.73
2019-04-05T10:04:07.419Z,1000.76
2019-04-05T10:05:07.435Z,1000.73
2019-04-05T10:06:07.443Z,1000.72
2019-04-05T10:07:07.398Z,1000.68
2019-04-05T10:08:07.373Z,1000.73
2019-04-05T10:09:07.393Z,1000.70
2019-04-05T10:10:07.380Z,1000.72
2019-04-05T10:11:07.395Z,1000.68
2019-04-05T10:12:07.359Z,1000.71
2019-04-05T10:13:09.652Z,1000.73
2019-04-05T10:14:07.328Z,1000.72
2019-04-05T10:15:07.302Z,1000.72
2019-04-05T10:16:07.328Z,1000.73
2019-04-05T10:17:07.295Z,1000.73
2019-04-05T10:18:07.294Z,1000.70
2019-04-05T10:19:07.272Z,1000.76
2019-04-05T10:20:07.240Z,1000.72
2019-04-05T10:21:07.294Z,1000.68
2019-04-05T10:22:07.219Z,1000.67
2019-04-05T10:23:07.256Z,1000.62
2019-04-05T10:24:07.271Z,1000.58
2019-04-05T10:25:07.189Z,1000.55
2019-04-05T10:26:07.176Z,1000.64
2019-04-05T10:27:07.183Z,1000.60
2019-04-05T10:28:07.173Z,1000.60
2019-04-05T10:29:07.213Z,1000.54
2019-04-05T10:30:07.141Z,1000.61
2019-04-05T10:31:07.125Z,1000.63
2019-04-05T10:32:07.123Z,1000.60
2019-04-05T10:33:07.100Z,1000.60
2019-04-05T10:34:07.213Z,1000.60
2019-04-05T10:35:07.078Z,1000.56
2019-04-05T10:36:07.071Z,1000.57
2019-04-05T10:37:07.056Z,1000.56
2019-04-05T10:38:07.053Z,1000.55
2019-04-05T10:39:07.051Z,1000.59
2019-04-05T10:40:07.082Z,1000.61
2019-04-05T10:41:07.013Z,1000.60
2019-04-05T10:42:07.008Z,1000.59
2019-04-05T10:43:06.987Z,1000.60
2019-04-05T10:44:07.038Z,1000.61
2019-04-05T10:45:06.982Z,1000.61
2019-04-05T10:46:06.960Z,1000.57
2019-04-05T10:47:06.947Z,1000.60
2019-04-05T10:48:06.953Z,1000.60
2019-04-05T10:49:06.955Z,1000.60
2019-04-05T10:50:06.930Z,1000.57
2019-04-05T10:51:06.925Z,1000.56
2019-04-05T10:52:06.936Z,1000.51
2019-04-05T10:53:06.882Z,1000.53
2019-04-05T10:54:09.263Z,1000.52
2019-04-05T10:55:06.892Z,1000.52
2019-04-05T10:56:06.848Z,1000.47
2019-04-05T10:57:06.839Z,1000.55
2019-04-05T10:58:06.831Z,1000.50
2019-04-05T10:59:06.816Z,1000.48
2019-04-05T11:00:06.823Z,1000.49
2019-04-05T11:01:06.795Z,1000.54
2019-04-05T11:02:06.789Z,1000.56
2019-04-05T11:03:06.795Z,1000.53
2019-04-05T11:04:06.793Z,1000.51
2019-04-05T11:05:06.824Z,1000.51
2019-04-05T11:06:06.797Z,1000.50
2019-04-05T11:07:06.727Z,1000.54
2019-04-05T11:08:06.722Z,1000.51
2019-04-05T11:09:06.714Z,1000.58
2019-04-05T11:10:06.775Z,1000.54
2019-04-05T11:11:06.688Z,1000.52
2019-04-05T11:12:08.629Z,1000.56
2019-04-05T11:13:06.674Z,1000.58
2019-04-05T11:14:13.513Z,1000.52
2019-04-05T11:15:07.673Z,1000.52
2019-04-05T11:16:06.634Z,1000.53
2019-04-05T11:17:06.619Z,1000.49
2019-04-05T11:18:06.608Z,1000.50
2019-04-05T11:19:06.600Z,1000.49
2019-04-05T11:20:20.151Z,1000.51
2019-04-05T11:21:07.602Z,1000.52
2019-04-05T11:22:06.568Z,1000.50
2019-04-05T11:23:06.554Z,1000.53
2019-04-05T11:24:06.569Z,1000.53
2019-04-05T11:25:06.558Z,1000.53
2019-04-05T11:26:06.566Z,1000.55
2019-04-05T11:27:06.869Z,1000.62
2019-04-05T11:28:06.505Z,1000.60
2019-04-05T11:29:06.497Z,1000.58
2019-04-05T11:30:06.476Z,1000.62
2019-04-05T11:31:06.483Z,1000.56
2019-04-05T11:32:06.464Z,1000.61
2019-04-05T11:33:06.460Z,1000.58
2019-04-05T11:34:06.442Z,1000.57
2019-04-05T11:35:06.448Z,1000.56
2019-04-05T11:36:06.579Z,1000.51
2019-04-05T11:37:14.156Z,1000.52
2019-04-05T11:38:06.391Z,1000.49
2019-04-05T11:39:06.379Z,1000.49
2019-04-05T11:40:06.370Z,1000.53
2019-04-05T11:41:06.378Z,1000.49
2019-04-05T11:42:06.346Z,1000.50
2019-04-05T11:43:06.341Z,1000.51
2019-04-05T11:44:06.324Z,1000.48
2019-04-05T11:45:06.420Z,1000.43
2019-04-05T11:46:06.326Z,1000.44
2019-04-05T11:47:06.292Z,1000.45
2019-04-05T11:48:06.293Z,1000.47
2019-04-05T11:49:06.273Z,1000.42
2019-04-05T11:50:06.289Z,1000.42
2019-04-05T11:51:06.274Z,1000.40
2019-04-05T11:52:06.263Z,1000.41
2019-04-05T11:53:06.225Z,1000.42
2019-04-05T11:54:06.215Z,1000.43
2019-04-05T11:55:06.213Z,1000.46
2019-04-05T11:56:14.660Z,1000.41
2019-04-05T11:57:07.223Z,1000.43
2019-04-05T11:58:13.749Z,1000.44
2019-04-05T11:59:06.161Z,1000.48
2019-04-05T12:00:06.147Z,1000.47
2019-04-05T12:01:06.138Z,1000.44
2019-04-05T12:02:06.149Z,1000.40
2019-04-05T12:03:06.115Z,1000.45
2019-04-05T12:04:06.105Z,1000.42
2019-04-05T12:05:06.216Z,1000.37
2019-04-05T12:06:06.091Z,1000.42
2019-04-05T12:07:06.100Z,1000.41
2019-04-05T12:08:06.059Z,1000.43
2019-04-05T12:09:06.054Z,1000.45
2019-04-05T12:10:06.038Z,1000.39
2019-04-05T12:11:06.038Z,1000.41
2019-04-05T12:12:06.015Z,1000.38
2019-04-05T12:13:06.025Z,1000.34
2019-04-05T12:14:05.996Z,1000.34
2019-04-05T12:15:06.466Z,1000.32
2019-04-05T12:16:07.229Z,1000.34